Terminal Aerodrome Forecast
Issued by NWS

Home | Current Version | Previous Version | Text Only | Print | Product List | Glossary On
Versions: 1 2 3 4 5 6 7 8 9 10 11 12 13 14 15 16 17 18 19 20
000
FTUS44 KCRP 231700
TAFLRD
TAF
KLRD 231734Z 2318/2418 16012KT P6SM SCT035
     FM232200 14017G24KT P6SM SCT250
     FM240700 15014KT P6SM SCT015 SCT250
     FM241000 15010KT P6SM BKN012 BKN250
     FM241500 17010KT P6SM SCT020 BKN200=

USA.gov is the U.S. government's official web portal to all federal, state and local government web resources and services.